createdAt,value
2023-01-29T00:03:54.165Z,6.45
2023-01-29T00:08:08.317Z,5.53
2023-01-29T00:12:21.172Z,4.80
2023-01-29T00:16:33.688Z,6.25
2023-01-29T00:20:46.230Z,6.50
2023-01-29T00:24:58.902Z,10.27
2023-01-29T00:29:13.689Z,9.07
2023-01-29T00:33:28.404Z,5.57
2023-01-29T00:37:42.077Z,6.72
2023-01-29T00:42:21.479Z,4.63
2023-01-29T00:46:38.823Z,28.42
2023-01-29T00:50:52.720Z,28.25
2023-01-29T00:55:06.520Z,26.75
2023-01-29T00:59:18.906Z,27.42
2023-01-29T01:03:35.736Z,26.92
2023-01-29T01:07:50.513Z,6.70
2023-01-29T01:12:02.884Z,6.45
2023-01-29T01:16:18.980Z,6.55
2023-01-29T01:20:34.030Z,7.47
2023-01-29T01:24:46.559Z,7.20
2023-01-29T01:28:59.930Z,4.75
2023-01-29T01:33:13.177Z,6.53
2023-01-29T01:37:25.508Z,4.47
2023-01-29T01:41:37.984Z,22.33
2023-01-29T01:45:50.313Z,6.53
2023-01-29T01:50:09.972Z,23.08
2023-01-29T01:54:27.266Z,6.15
2023-01-29T01:58:54.258Z,7.97
2023-01-29T02:03:27.535Z,9.10
2023-01-29T02:08:08.208Z,5.70
2023-01-29T02:12:21.902Z,23.75
2023-01-29T02:16:38.251Z,7.57
2023-01-29T02:21:25.211Z,7.20
2023-01-29T02:25:49.126Z,6.63
2023-01-29T02:30:17.642Z,7.40
2023-01-29T02:38:44.084Z,22.75
2023-01-29T02:43:27.505Z,7.95
2023-01-29T02:48:00.666Z,24.60
2023-01-29T02:52:21.716Z,25.63
2023-01-29T02:56:53.400Z,26.20
2023-01-29T03:01:13.972Z,25.35
2023-01-29T03:05:43.588Z,27.38
2023-01-29T03:09:57.765Z,6.35
2023-01-29T03:14:19.364Z,6.10
2023-01-29T03:18:43.922Z,6.10
2023-01-29T03:23:06.093Z,6.78
2023-01-29T03:27:41.152Z,6.43
2023-01-29T03:32:08.286Z,6.60
2023-01-29T03:36:46.355Z,23.85
2023-01-29T03:41:19.789Z,6.80
2023-01-29T03:45:43.979Z,6.80
2023-01-29T03:50:18.145Z,8.75
2023-01-29T03:54:40.080Z,5.93
2023-01-29T03:59:21.672Z,23.10
2023-01-29T04:04:15.366Z,23.40
2023-01-29T04:08:33.018Z,26.77
2023-01-29T04:12:51.753Z,24.08
2023-01-29T04:17:14.903Z,23.90
2023-01-29T04:21:37.376Z,24.67
2023-01-29T04:26:07.096Z,8.02
2023-01-29T04:31:00.449Z,23.43
2023-01-29T04:35:37.336Z,21.38
2023-01-29T04:39:53.880Z,21.17
2023-01-29T04:44:45.318Z,19.75
2023-01-29T04:49:35.122Z,7.28
2023-01-29T04:54:07.974Z,18.60
2023-01-29T04:58:30.908Z,18.45
2023-01-29T05:02:45.565Z,17.52
2023-01-29T05:06:59.121Z,15.48
2023-01-29T05:11:12.084Z,14.60
2023-01-29T05:15:29.578Z,14.95
2023-01-29T05:19:42.218Z,14.63
2023-01-29T05:24:27.090Z,5.40
2023-01-29T05:28:39.397Z,4.30
2023-01-29T05:32:51.671Z,4.63
2023-01-29T05:37:04.098Z,4.72
2023-01-29T05:41:17.639Z,4.82
2023-01-29T05:45:30.007Z,14.38
2023-01-29T05:49:42.369Z,15.80
2023-01-29T05:53:55.038Z,17.45
2023-01-29T05:58:07.420Z,16.33
2023-01-29T06:02:19.807Z,17.30
2023-01-29T06:06:32.213Z,18.35
2023-01-29T06:10:44.565Z,18.33
2023-01-29T06:14:56.883Z,6.70
2023-01-29T06:19:09.233Z,6.43
2023-01-29T06:23:21.593Z,17.45
2023-01-29T06:27:35.379Z,17.77
2023-01-29T06:31:47.820Z,15.07
2023-01-29T06:36:03.836Z,14.82
2023-01-29T06:40:16.695Z,15.63
2023-01-29T06:44:30.845Z,15.75
2023-01-29T06:48:43.584Z,17.52
2023-01-29T06:52:55.909Z,16.55
2023-01-29T06:57:08.304Z,5.32
2023-01-29T07:01:35.154Z,6.13
2023-01-29T07:05:53.186Z,23.05
2023-01-29T07:10:06.099Z,21.70
2023-01-29T07:14:18.571Z,25.20
2023-01-29T07:18:31.703Z,26.08
2023-01-29T07:22:43.930Z,27.67
2023-01-29T07:26:56.317Z,28.10
2023-01-29T07:31:12.168Z,27.95
2023-01-29T07:35:26.914Z,29.10
2023-01-29T07:39:39.305Z,28.67
2023-01-29T07:43:51.632Z,27.30
2023-01-29T07:48:07.942Z,24.67
2023-01-29T07:52:22.196Z,20.02
2023-01-29T07:56:34.704Z,20.35
2023-01-29T08:00:47.190Z,22.92
2023-01-29T08:04:59.484Z,21.27
2023-01-29T08:09:11.846Z,18.63
2023-01-29T08:13:24.367Z,17.25
2023-01-29T08:17:43.352Z,16.55
2023-01-29T08:22:01.596Z,18.02
2023-01-29T08:26:13.973Z,18.60
2023-01-29T08:30:28.706Z,17.17
2023-01-29T08:34:41.080Z,16.55
2023-01-29T08:38:53.408Z,18.38
2023-01-29T08:43:10.228Z,16.92
2023-01-29T08:47:22.467Z,16.70
2023-01-29T08:51:34.921Z,17.55
2023-01-29T08:55:47.673Z,15.70
2023-01-29T09:00:00.494Z,11.70
2023-01-29T09:04:13.134Z,10.55
2023-01-29T09:08:25.440Z,9.93
2023-01-29T09:12:38.034Z,7.68
2023-01-29T09:16:51.775Z,4.10
2023-01-29T09:21:05.159Z,5.43
2023-01-29T09:25:17.760Z,4.78
2023-01-29T09:29:30.300Z,5.65
2023-01-29T09:33:43.425Z,6.65
2023-01-29T09:37:55.821Z,22.55
2023-01-29T09:42:26.159Z,26.75
2023-01-29T09:46:44.038Z,21.75
2023-01-29T09:50:59.182Z,27.40
2023-01-29T09:55:33.739Z,30.08
2023-01-29T09:59:46.144Z,26.17
2023-01-29T10:04:23.094Z,21.27
2023-01-29T10:09:16.389Z,19.42
2023-01-29T10:13:57.799Z,17.73
2023-01-29T10:18:41.428Z,16.15
2023-01-29T10:23:47.427Z,14.85
2023-01-29T10:28:01.982Z,11.15
2023-01-29T10:32:21.761Z,9.52
2023-01-29T10:36:45.259Z,8.90
2023-01-29T10:41:18.818Z,9.25
2023-01-29T10:45:49.096Z,9.40
2023-01-29T10:50:25.829Z,10.15
2023-01-29T10:55:13.439Z,9.80
2023-01-29T10:59:43.744Z,9.20
2023-01-29T11:04:04.479Z,8.80
2023-01-29T11:08:20.703Z,9.50
2023-01-29T11:12:35.135Z,9.68
2023-01-29T11:16:49.002Z,9.10
2023-01-29T11:21:04.836Z,9.10
2023-01-29T11:25:21.357Z,7.55
2023-01-29T11:29:44.006Z,6.80
2023-01-29T11:34:07.147Z,5.88
2023-01-29T11:38:24.917Z,4.90
2023-01-29T11:42:37.403Z,4.78
2023-01-29T11:46:50.301Z,5.22
2023-01-29T11:51:05.554Z,4.32
2023-01-29T11:55:24.888Z,4.10
2023-01-29T11:59:48.759Z,5.00
2023-01-29T12:04:01.740Z,5.10
2023-01-29T12:08:19.217Z,5.13
2023-01-29T12:12:42.043Z,5.18
2023-01-29T12:17:04.267Z,5.07
2023-01-29T12:21:27.512Z,4.40
2023-01-29T12:26:06.148Z,4.28
2023-01-29T12:30:31.962Z,4.60
2023-01-29T12:34:56.847Z,3.88
2023-01-29T12:39:14.524Z,4.30
2023-01-29T12:43:51.886Z,4.10
2023-01-29T12:48:12.530Z,5.63
2023-01-29T12:52:38.449Z,4.10
2023-01-29T12:56:56.360Z,4.30
2023-01-29T13:01:27.171Z,4.05
2023-01-29T13:05:57.816Z,4.32
2023-01-29T13:10:18.284Z,3.60
2023-01-29T13:14:43.087Z,4.05
2023-01-29T13:18:57.859Z,3.95
2023-01-29T13:23:22.135Z,4.25
2023-01-29T13:27:37.277Z,3.95
2023-01-29T13:31:51.144Z,4.28
2023-01-29T13:36:05.651Z,4.53
2023-01-29T13:40:28.147Z,5.00
2023-01-29T13:44:41.458Z,4.28
2023-01-29T13:48:55.519Z,4.43
2023-01-29T13:53:19.086Z,4.40
2023-01-29T13:57:39.748Z,4.90
2023-01-29T14:01:55.394Z,4.43
2023-01-29T14:06:08.993Z,4.15
2023-01-29T14:10:24.404Z,3.95
2023-01-29T14:14:49.109Z,4.80
2023-01-29T14:19:05.222Z,5.22
2023-01-29T14:23:23.228Z,4.95
2023-01-29T14:27:37.399Z,5.38
2023-01-29T14:31:52.551Z,5.30
2023-01-29T14:36:15.926Z,5.60
2023-01-29T14:40:30.616Z,5.03
2023-01-29T14:44:45.931Z,4.90
2023-01-29T14:48:58.292Z,4.30
2023-01-29T14:53:44.605Z,4.15
2023-01-29T14:57:58.574Z,6.95
2023-01-29T15:02:33.459Z,7.15
2023-01-29T15:06:47.307Z,7.72
2023-01-29T15:11:26.263Z,8.25
2023-01-29T15:15:50.083Z,8.10
2023-01-29T15:20:02.775Z,9.75
2023-01-29T15:24:15.244Z,8.30
2023-01-29T15:28:34.033Z,9.52
2023-01-29T15:32:49.278Z,9.73
2023-01-29T15:37:02.176Z,9.00
2023-01-29T15:41:24.045Z,9.77
2023-01-29T15:45:41.487Z,10.07
2023-01-29T15:49:58.219Z,11.35
2023-01-29T15:54:17.513Z,11.00
2023-01-29T15:58:32.733Z,12.13
2023-01-29T16:02:45.207Z,13.13
2023-01-29T16:07:01.089Z,10.60
2023-01-29T16:11:13.824Z,10.23
2023-01-29T16:15:33.007Z,9.52
2023-01-29T16:19:56.538Z,10.70
2023-01-29T16:24:14.152Z,10.52
2023-01-29T16:28:27.204Z,12.00
2023-01-29T16:32:39.660Z,11.82
2023-01-29T16:36:54.570Z,11.57
2023-01-29T16:41:31.330Z,13.82
2023-01-29T16:45:43.983Z,12.15
2023-01-29T16:49:59.142Z,15.00
2023-01-29T16:54:20.029Z,19.00
2023-01-29T16:58:32.696Z,16.70
2023-01-29T17:02:45.079Z,18.77
2023-01-29T17:07:02.304Z,19.90
2023-01-29T17:11:26.815Z,22.90
2023-01-29T17:15:43.339Z,23.75
2023-01-29T17:19:55.627Z,24.52
2023-01-29T17:24:09.397Z,30.63
2023-01-29T17:28:22.718Z,30.17
2023-01-29T17:32:44.522Z,33.92
2023-01-29T17:36:57.793Z,32.88
2023-01-29T17:41:27.604Z,34.05
2023-01-29T17:45:40.968Z,10.53
2023-01-29T17:49:53.446Z,32.80
2023-01-29T17:54:05.837Z,30.08
2023-01-29T17:58:26.690Z,29.65
2023-01-29T18:02:39.122Z,30.35
2023-01-29T18:06:52.390Z,32.47
2023-01-29T18:11:05.326Z,32.28
2023-01-29T18:15:18.142Z,34.13
2023-01-29T18:19:34.793Z,35.70
2023-01-29T18:23:47.260Z,34.75
2023-01-29T18:27:59.872Z,35.65
2023-01-29T18:32:12.426Z,40.05
2023-01-29T18:36:24.786Z,37.03
2023-01-29T18:40:37.626Z,32.10
2023-01-29T18:44:50.180Z,44.03
2023-01-29T18:49:02.727Z,30.20
2023-01-29T18:53:15.233Z,30.75
2023-01-29T18:58:27.523Z,29.83
2023-01-29T19:02:01.347Z,49.00
2023-01-29T19:06:13.975Z,44.97
2023-01-29T19:10:26.745Z,39.03
2023-01-29T19:14:39.077Z,35.53
2023-01-29T19:18:53.835Z,39.28
2023-01-29T19:23:08.411Z,42.67
2023-01-29T19:27:21.092Z,46.97
2023-01-29T19:31:33.897Z,31.83
2023-01-29T19:35:46.622Z,12.10
2023-01-29T19:39:59.134Z,29.30
2023-01-29T19:44:13.620Z,32.75
2023-01-29T19:48:26.903Z,32.53
2023-01-29T19:52:50.663Z,32.60
2023-01-29T19:57:04.413Z,31.95
2023-01-29T20:01:19.459Z,35.15
2023-01-29T20:05:32.061Z,36.42
2023-01-29T20:09:44.586Z,15.10
2023-01-29T20:13:58.941Z,54.38
2023-01-29T20:18:12.545Z,55.25
2023-01-29T20:22:27.087Z,55.90
2023-01-29T20:26:39.651Z,55.58
2023-01-29T20:30:55.695Z,57.20
2023-01-29T20:35:08.871Z,18.48
2023-01-29T20:39:21.300Z,15.45
2023-01-29T20:43:34.185Z,70.05
2023-01-29T20:47:47.882Z,82.07
2023-01-29T20:52:00.402Z,20.13
2023-01-29T20:56:15.521Z,23.98
2023-01-29T21:00:28.083Z,21.00
2023-01-29T21:04:40.447Z,21.45
2023-01-29T21:08:52.817Z,63.60
2023-01-29T21:13:05.324Z,65.57
2023-01-29T21:17:17.675Z,65.32
2023-01-29T21:21:30.419Z,19.83
2023-01-29T21:25:42.780Z,63.05
2023-01-29T21:29:55.239Z,68.78
2023-01-29T21:34:09.225Z,19.15
2023-01-29T21:38:21.679Z,21.08
2023-01-29T21:42:53.091Z,75.82
2023-01-29T21:47:15.187Z,77.10
2023-01-29T21:51:27.738Z,87.63
2023-01-29T21:55:40.952Z,76.22
2023-01-29T21:59:54.063Z,80.07
2023-01-29T22:04:08.909Z,87.03
2023-01-29T22:08:21.297Z,78.68
2023-01-29T22:12:33.787Z,65.55
2023-01-29T22:16:46.430Z,65.53
2023-01-29T22:21:00.021Z,66.65
2023-01-29T22:25:12.415Z,69.25
2023-01-29T22:29:24.739Z,70.43
2023-01-29T22:33:37.400Z,73.07
2023-01-29T22:37:49.803Z,85.57
2023-01-29T22:42:02.426Z,87.38
2023-01-29T22:46:14.848Z,24.02
2023-01-29T22:50:27.219Z,21.50
2023-01-29T22:54:42.766Z,22.92
2023-01-29T22:58:59.441Z,14.10
2023-01-29T23:03:18.270Z,74.18
2023-01-29T23:07:30.935Z,16.88
2023-01-29T23:11:43.267Z,12.27
2023-01-29T23:15:59.912Z,58.17
2023-01-29T23:20:13.331Z,61.78
2023-01-29T23:24:25.736Z,18.63
2023-01-29T23:28:37.964Z,57.67
2023-01-29T23:32:50.332Z,18.50
2023-01-29T23:37:02.744Z,18.27
2023-01-29T23:41:15.152Z,16.20
2023-01-29T23:45:27.585Z,13.93
2023-01-29T23:49:40.927Z,43.53
2023-01-29T23:53:54.656Z,13.20
2023-01-29T23:58:07.283Z,9.73
